Etusivu
METAR-TAF:

METAR-TAF

Lentoasemat :

Nueva Loja, Ecuador

Leveyspiiri: 00-05-33N, Pituuspiiri: 076-52-10W, korkeus merenpinnasta: 299 m

Tämänhetkinen sää

Tämä raportti tehtiin 1 tunti ja 6 minuuttia sitten, kello 12.00 UTC
Tuuli 2 kn etelästä/kaakosta
Lämpötila 22°C
Kosteus 100%
Ilmanpaine 1016 hPa
Näkyvyys 10 km tai enemmän
Hajanaisia pilviä 1000 ft:n korkeudessa
Hajonneita pilviä 1600 ft:n korkeudessa
Pilvistä 9000 ft:n korkeudessa
heikkoa sadetta

METAR: SENL 021200Z 15002KT 9999 -RA SCT010 BKN016 OVC090 22/22 Q1016 RMK A3001

Aika: 08:06 (13:06 UTC)


TAF: puuttuu

Säähavainnot ja -ennusteet yli 4000 lentoasemalta (METAR- ja TAF-raportit).

Käytössä olevat sääasemat on merkitty karttaan keltaisilla ja punaisilla pisteillä.

Aseta hiiri pisteen päälle nähdäksesi sääaseman nimen.

Klikkaa sitten nähdäksesi säähavainnot ja -ennusteet.

Kartan vaihtaminen: klikkaa mustalla rastilla varustettuja vihreitä pisteitä, niin voit zoomata sisään; viivalla varustettua vihreää pistettä, niin voit zoomata ulos tai vihreitä nuolia, niin pääset viereisille kartoille.


METAR-TAF: